sensor_id;sensor_type;location;lat;lon;timestamp;P1;durP1;ratioP1;P2;durP2;ratioP2
15356;SDS011;7778;48.792;9.260;2024-01-06T00:00:50;5.93;;;2.30;;
15356;SDS011;7778;48.792;9.260;2024-01-06T00:03:35;4.03;;;2.38;;
15356;SDS011;7778;48.792;9.260;2024-01-06T00:06:21;3.00;;;2.03;;
15356;SDS011;7778;48.792;9.260;2024-01-06T00:09:07;4.72;;;2.78;;
15356;SDS011;7778;48.792;9.260;2024-01-06T00:11:53;3.05;;;1.92;;
15356;SDS011;7778;48.792;9.260;2024-01-06T00:14:38;3.88;;;2.38;;
15356;SDS011;7778;48.792;9.260;2024-01-06T00:17:29;3.10;;;2.15;;
15356;SDS011;7778;48.792;9.260;2024-01-06T00:20:15;4.78;;;2.30;;
15356;SDS011;7778;48.792;9.260;2024-01-06T00:23:00;4.13;;;2.25;;
15356;SDS011;7778;48.792;9.260;2024-01-06T00:25:46;2.72;;;1.90;;
15356;SDS011;7778;48.792;9.260;2024-01-06T00:28:32;4.18;;;2.03;;
15356;SDS011;7778;48.792;9.260;2024-01-06T00:31:17;2.85;;;1.67;;
15356;SDS011;7778;48.792;9.260;2024-01-06T00:34:04;4.18;;;2.08;;
15356;SDS011;7778;48.792;9.260;2024-01-06T00:36:50;3.78;;;2.05;;
15356;SDS011;7778;48.792;9.260;2024-01-06T00:39:36;3.33;;;2.13;;
15356;SDS011;7778;48.792;9.260;2024-01-06T00:42:21;2.20;;;1.58;;
15356;SDS011;7778;48.792;9.260;2024-01-06T00:45:07;4.20;;;2.15;;
15356;SDS011;7778;48.792;9.260;2024-01-06T00:47:54;5.28;;;1.98;;
15356;SDS011;7778;48.792;9.260;2024-01-06T00:50:41;2.28;;;1.70;;
15356;SDS011;7778;48.792;9.260;2024-01-06T00:53:27;3.53;;;1.63;;
15356;SDS011;7778;48.792;9.260;2024-01-06T00:56:12;3.47;;;1.58;;
15356;SDS011;7778;48.792;9.260;2024-01-06T00:58:58;2.47;;;1.65;;
15356;SDS011;7778;48.792;9.260;2024-01-06T01:01:43;2.10;;;1.40;;
15356;SDS011;7778;48.792;9.260;2024-01-06T01:04:29;2.85;;;1.00;;
15356;SDS011;7778;48.792;9.260;2024-01-06T01:07:16;1.38;;;1.00;;
15356;SDS011;7778;48.792;9.260;2024-01-06T01:10:02;1.98;;;1.00;;
15356;SDS011;7778;48.792;9.260;2024-01-06T01:12:49;2.88;;;1.10;;
15356;SDS011;7778;48.792;9.260;2024-01-06T01:15:35;1.80;;;1.10;;
15356;SDS011;7778;48.792;9.260;2024-01-06T01:18:20;2.17;;;1.10;;
15356;SDS011;7778;48.792;9.260;2024-01-06T01:21:06;3.35;;;0.98;;
15356;SDS011;7778;48.792;9.260;2024-01-06T01:23:53;2.28;;;1.45;;
15356;SDS011;7778;48.792;9.260;2024-01-06T01:26:38;2.50;;;1.00;;
15356;SDS011;7778;48.792;9.260;2024-01-06T01:29:24;3.47;;;1.25;;
15356;SDS011;7778;48.792;9.260;2024-01-06T01:32:09;2.80;;;1.33;;
15356;SDS011;7778;48.792;9.260;2024-01-06T01:34:55;2.08;;;1.00;;
15356;SDS011;7778;48.792;9.260;2024-01-06T01:37:40;3.40;;;1.20;;
15356;SDS011;7778;48.792;9.260;2024-01-06T01:40:27;1.20;;;0.85;;
15356;SDS011;7778;48.792;9.260;2024-01-06T01:43:16;2.38;;;1.02;;
15356;SDS011;7778;48.792;9.260;2024-01-06T01:46:02;3.00;;;1.15;;
15356;SDS011;7778;48.792;9.260;2024-01-06T01:48:48;3.30;;;1.10;;
15356;SDS011;7778;48.792;9.260;2024-01-06T01:51:34;0.98;;;0.85;;
15356;SDS011;7778;48.792;9.260;2024-01-06T01:54:21;1.20;;;0.80;;
15356;SDS011;7778;48.792;9.260;2024-01-06T01:57:09;1.80;;;1.20;;
15356;SDS011;7778;48.792;9.260;2024-01-06T01:59:56;3.08;;;1.23;;
15356;SDS011;7778;48.792;9.260;2024-01-06T02:02:42;3.95;;;1.30;;
15356;SDS011;7778;48.792;9.260;2024-01-06T02:05:28;0.52;;;0.52;;
15356;SDS011;7778;48.792;9.260;2024-01-06T02:08:13;2.35;;;0.75;;
15356;SDS011;7778;48.792;9.260;2024-01-06T02:10:59;2.70;;;0.98;;
15356;SDS011;7778;48.792;9.260;2024-01-06T02:13:46;3.63;;;0.82;;
15356;SDS011;7778;48.792;9.260;2024-01-06T02:16:31;7.78;;;1.83;;
15356;SDS011;7778;48.792;9.260;2024-01-06T02:19:17;1.27;;;0.60;;
15356;SDS011;7778;48.792;9.260;2024-01-06T02:22:04;1.20;;;1.00;;
15356;SDS011;7778;48.792;9.260;2024-01-06T02:24:50;2.70;;;1.20;;
15356;SDS011;7778;48.792;9.260;2024-01-06T02:27:35;2.22;;;0.88;;
15356;SDS011;7778;48.792;9.260;2024-01-06T02:30:21;5.10;;;1.42;;
15356;SDS011;7778;48.792;9.260;2024-01-06T02:33:06;1.45;;;0.85;;
15356;SDS011;7778;48.792;9.260;2024-01-06T02:35:52;1.92;;;0.82;;
15356;SDS011;7778;48.792;9.260;2024-01-06T02:38:39;1.20;;;0.70;;
15356;SDS011;7778;48.792;9.260;2024-01-06T02:41:24;5.20;;;1.23;;
15356;SDS011;7778;48.792;9.260;2024-01-06T02:44:10;2.90;;;0.88;;
15356;SDS011;7778;48.792;9.260;2024-01-06T02:46:57;1.05;;;0.95;;
15356;SDS011;7778;48.792;9.260;2024-01-06T02:49:43;0.77;;;0.70;;
15356;SDS011;7778;48.792;9.260;2024-01-06T02:52:28;1.60;;;0.88;;
15356;SDS011;7778;48.792;9.260;2024-01-06T02:55:15;2.15;;;1.02;;
15356;SDS011;7778;48.792;9.260;2024-01-06T02:58:01;5.47;;;1.00;;
15356;SDS011;7778;48.792;9.260;2024-01-06T03:00:47;2.25;;;0.88;;
15356;SDS011;7778;48.792;9.260;2024-01-06T03:03:33;1.23;;;0.57;;
15356;SDS011;7778;48.792;9.260;2024-01-06T03:06:18;1.88;;;0.90;;
15356;SDS011;7778;48.792;9.260;2024-01-06T03:09:03;1.75;;;0.63;;
15356;SDS011;7778;48.792;9.260;2024-01-06T03:11:50;1.10;;;0.63;;
15356;SDS011;7778;48.792;9.260;2024-01-06T03:14:36;1.38;;;0.93;;
15356;SDS011;7778;48.792;9.260;2024-01-06T03:17:22;1.80;;;0.85;;
15356;SDS011;7778;48.792;9.260;2024-01-06T03:20:08;2.70;;;0.95;;
15356;SDS011;7778;48.792;9.260;2024-01-06T03:22:54;1.92;;;0.93;;
15356;SDS011;7778;48.792;9.260;2024-01-06T03:25:39;3.70;;;1.00;;
15356;SDS011;7778;48.792;9.260;2024-01-06T03:28:26;0.73;;;0.73;;
15356;SDS011;7778;48.792;9.260;2024-01-06T03:31:12;4.05;;;0.70;;
15356;SDS011;7778;48.792;9.260;2024-01-06T03:33:57;1.23;;;0.88;;
15356;SDS011;7778;48.792;9.260;2024-01-06T03:36:43;3.58;;;1.15;;
15356;SDS011;7778;48.792;9.260;2024-01-06T03:39:29;3.17;;;1.25;;
15356;SDS011;7778;48.792;9.260;2024-01-06T03:42:14;3.80;;;0.75;;
15356;SDS011;7778;48.792;9.260;2024-01-06T03:45:01;3.08;;;0.98;;
15356;SDS011;7778;48.792;9.260;2024-01-06T03:47:47;3.60;;;1.02;;
15356;SDS011;7778;48.792;9.260;2024-01-06T03:50:33;2.10;;;0.75;;
15356;SDS011;7778;48.792;9.260;2024-01-06T03:53:19;2.83;;;1.05;;
15356;SDS011;7778;48.792;9.260;2024-01-06T03:56:04;3.92;;;0.88;;
15356;SDS011;7778;48.792;9.260;2024-01-06T03:58:50;1.30;;;0.77;;
15356;SDS011;7778;48.792;9.260;2024-01-06T04:01:37;4.13;;;0.90;;
15356;SDS011;7778;48.792;9.260;2024-01-06T04:04:22;2.20;;;1.02;;
15356;SDS011;7778;48.792;9.260;2024-01-06T04:07:08;1.67;;;0.80;;
15356;SDS011;7778;48.792;9.260;2024-01-06T04:09:53;1.65;;;0.70;;
15356;SDS011;7778;48.792;9.260;2024-01-06T04:12:39;4.30;;;1.05;;
15356;SDS011;7778;48.792;9.260;2024-01-06T04:15:24;2.67;;;1.08;;
15356;SDS011;7778;48.792;9.260;2024-01-06T04:18:11;3.85;;;1.70;;
15356;SDS011;7778;48.792;9.260;2024-01-06T04:20:57;1.83;;;1.02;;
15356;SDS011;7778;48.792;9.260;2024-01-06T04:23:43;3.35;;;1.10;;
15356;SDS011;7778;48.792;9.260;2024-01-06T04:26:28;1.17;;;0.93;;
15356;SDS011;7778;48.792;9.260;2024-01-06T04:29:14;5.70;;;1.30;;
15356;SDS011;7778;48.792;9.260;2024-01-06T04:31:59;1.05;;;0.65;;
15356;SDS011;7778;48.792;9.260;2024-01-06T04:34:46;1.20;;;0.82;;
15356;SDS011;7778;48.792;9.260;2024-01-06T04:37:31;0.77;;;0.60;;
15356;SDS011;7778;48.792;9.260;2024-01-06T04:40:17;1.23;;;0.90;;
15356;SDS011;7778;48.792;9.260;2024-01-06T04:43:03;1.17;;;0.93;;
15356;SDS011;7778;48.792;9.260;2024-01-06T04:45:49;2.13;;;1.17;;
15356;SDS011;7778;48.792;9.260;2024-01-06T04:48:35;0.90;;;0.80;;
15356;SDS011;7778;48.792;9.260;2024-01-06T04:51:22;1.73;;;1.20;;
15356;SDS011;7778;48.792;9.260;2024-01-06T04:54:07;1.08;;;0.82;;
15356;SDS011;7778;48.792;9.260;2024-01-06T04:56:53;1.23;;;0.80;;
15356;SDS011;7778;48.792;9.260;2024-01-06T04:59:39;4.88;;;0.93;;
15356;SDS011;7778;48.792;9.260;2024-01-06T05:02:25;2.78;;;0.60;;
15356;SDS011;7778;48.792;9.260;2024-01-06T05:05:11;4.38;;;1.15;;
15356;SDS011;7778;48.792;9.260;2024-01-06T05:07:58;1.33;;;0.82;;
15356;SDS011;7778;48.792;9.260;2024-01-06T05:10:45;1.10;;;0.80;;
15356;SDS011;7778;48.792;9.260;2024-01-06T05:13:30;1.80;;;0.77;;
15356;SDS011;7778;48.792;9.260;2024-01-06T05:16:16;2.72;;;0.50;;
15356;SDS011;7778;48.792;9.260;2024-01-06T05:19:02;1.08;;;0.80;;
15356;SDS011;7778;48.792;9.260;2024-01-06T05:21:47;5.63;;;0.80;;
15356;SDS011;7778;48.792;9.260;2024-01-06T05:24:35;1.55;;;0.80;;
15356;SDS011;7778;48.792;9.260;2024-01-06T05:27:21;6.10;;;1.27;;
15356;SDS011;7778;48.792;9.260;2024-01-06T05:30:06;2.55;;;0.70;;
15356;SDS011;7778;48.792;9.260;2024-01-06T05:32:53;4.05;;;1.25;;
15356;SDS011;7778;48.792;9.260;2024-01-06T05:35:39;3.08;;;0.70;;
15356;SDS011;7778;48.792;9.260;2024-01-06T05:38:24;3.60;;;1.17;;
15356;SDS011;7778;48.792;9.260;2024-01-06T05:41:11;2.00;;;1.08;;
15356;SDS011;7778;48.792;9.260;2024-01-06T05:43:57;3.72;;;1.08;;
15356;SDS011;7778;48.792;9.260;2024-01-06T05:46:42;1.70;;;0.82;;
15356;SDS011;7778;48.792;9.260;2024-01-06T05:49:28;0.50;;;0.50;;
15356;SDS011;7778;48.792;9.260;2024-01-06T05:52:14;1.17;;;0.82;;
15356;SDS011;7778;48.792;9.260;2024-01-06T05:55:00;4.68;;;0.85;;
15356;SDS011;7778;48.792;9.260;2024-01-06T05:57:47;1.02;;;0.90;;
15356;SDS011;7778;48.792;9.260;2024-01-06T06:00:32;1.92;;;1.10;;
15356;SDS011;7778;48.792;9.260;2024-01-06T06:03:18;1.85;;;0.93;;
15356;SDS011;7778;48.792;9.260;2024-01-06T06:06:04;2.63;;;1.80;;
15356;SDS011;7778;48.792;9.260;2024-01-06T06:08:49;6.20;;;2.40;;
15356;SDS011;7778;48.792;9.260;2024-01-06T06:11:35;3.63;;;1.77;;
15356;SDS011;7778;48.792;9.260;2024-01-06T06:14:22;22.92;;;11.30;;
15356;SDS011;7778;48.792;9.260;2024-01-06T06:17:08;17.30;;;6.78;;
15356;SDS011;7778;48.792;9.260;2024-01-06T06:19:53;4.80;;;3.15;;
15356;SDS011;7778;48.792;9.260;2024-01-06T06:22:40;3.30;;;2.20;;
15356;SDS011;7778;48.792;9.260;2024-01-06T06:25:26;3.58;;;1.92;;
15356;SDS011;7778;48.792;9.260;2024-01-06T06:28:12;2.67;;;1.60;;
15356;SDS011;7778;48.792;9.260;2024-01-06T06:30:59;2.42;;;1.27;;
15356;SDS011;7778;48.792;9.260;2024-01-06T06:33:45;1.50;;;1.40;;
15356;SDS011;7778;48.792;9.260;2024-01-06T06:36:30;3.58;;;1.38;;
15356;SDS011;7778;48.792;9.260;2024-01-06T06:39:16;3.58;;;1.50;;
15356;SDS011;7778;48.792;9.260;2024-01-06T06:42:02;3.40;;;1.10;;
15356;SDS011;7778;48.792;9.260;2024-01-06T06:44:56;2.30;;;1.10;;
15356;SDS011;7778;48.792;9.260;2024-01-06T06:47:43;2.33;;;1.10;;
15356;SDS011;7778;48.792;9.260;2024-01-06T06:50:28;2.70;;;1.00;;
15356;SDS011;7778;48.792;9.260;2024-01-06T06:53:14;1.48;;;1.13;;
15356;SDS011;7778;48.792;9.260;2024-01-06T06:56:01;3.88;;;1.20;;
15356;SDS011;7778;48.792;9.260;2024-01-06T06:58:46;5.78;;;1.15;;
15356;SDS011;7778;48.792;9.260;2024-01-06T07:01:35;2.38;;;1.42;;
15356;SDS011;7778;48.792;9.260;2024-01-06T07:04:23;4.43;;;1.10;;
15356;SDS011;7778;48.792;9.260;2024-01-06T07:07:11;3.42;;;1.65;;
15356;SDS011;7778;48.792;9.260;2024-01-06T07:09:57;3.40;;;1.30;;
15356;SDS011;7778;48.792;9.260;2024-01-06T07:12:43;4.32;;;1.55;;
15356;SDS011;7778;48.792;9.260;2024-01-06T07:15:28;2.58;;;1.13;;
15356;SDS011;7778;48.792;9.260;2024-01-06T07:18:14;2.55;;;1.52;;
15356;SDS011;7778;48.792;9.260;2024-01-06T07:21:00;3.05;;;1.20;;
15356;SDS011;7778;48.792;9.260;2024-01-06T07:23:46;2.47;;;1.60;;
15356;SDS011;7778;48.792;9.260;2024-01-06T07:26:32;2.22;;;1.02;;
15356;SDS011;7778;48.792;9.260;2024-01-06T07:29:20;3.88;;;1.10;;
15356;SDS011;7778;48.792;9.260;2024-01-06T07:32:07;2.83;;;1.20;;
15356;SDS011;7778;48.792;9.260;2024-01-06T07:34:53;2.08;;;1.10;;
15356;SDS011;7778;48.792;9.260;2024-01-06T07:37:40;3.33;;;1.23;;
15356;SDS011;7778;48.792;9.260;2024-01-06T07:40:26;2.95;;;1.52;;
15356;SDS011;7778;48.792;9.260;2024-01-06T07:43:14;4.22;;;1.50;;
15356;SDS011;7778;48.792;9.260;2024-01-06T07:45:59;3.47;;;2.08;;
15356;SDS011;7778;48.792;9.260;2024-01-06T07:48:47;1.90;;;1.17;;
15356;SDS011;7778;48.792;9.260;2024-01-06T07:51:33;1.30;;;0.95;;
15356;SDS011;7778;48.792;9.260;2024-01-06T07:54:22;6.75;;;1.33;;
15356;SDS011;7778;48.792;9.260;2024-01-06T07:57:10;2.17;;;0.95;;
15356;SDS011;7778;48.792;9.260;2024-01-06T07:59:56;5.93;;;1.38;;
15356;SDS011;7778;48.792;9.260;2024-01-06T08:02:42;1.02;;;0.82;;
15356;SDS011;7778;48.792;9.260;2024-01-06T08:05:27;3.95;;;1.38;;
15356;SDS011;7778;48.792;9.260;2024-01-06T08:08:13;5.72;;;1.45;;
15356;SDS011;7778;48.792;9.260;2024-01-06T08:11:02;1.95;;;1.55;;
15356;SDS011;7778;48.792;9.260;2024-01-06T08:13:47;1.73;;;1.02;;
15356;SDS011;7778;48.792;9.260;2024-01-06T08:16:33;2.22;;;1.17;;
15356;SDS011;7778;48.792;9.260;2024-01-06T08:19:20;4.30;;;1.02;;
15356;SDS011;7778;48.792;9.260;2024-01-06T08:22:05;1.55;;;1.15;;
15356;SDS011;7778;48.792;9.260;2024-01-06T08:24:50;2.13;;;1.20;;
15356;SDS011;7778;48.792;9.260;2024-01-06T08:27:37;3.97;;;1.15;;
15356;SDS011;7778;48.792;9.260;2024-01-06T08:30:23;1.73;;;1.42;;
15356;SDS011;7778;48.792;9.260;2024-01-06T08:33:09;3.58;;;1.20;;
15356;SDS011;7778;48.792;9.260;2024-01-06T08:35:55;1.60;;;1.00;;
15356;SDS011;7778;48.792;9.260;2024-01-06T08:38:40;2.08;;;1.85;;
15356;SDS011;7778;48.792;9.260;2024-01-06T08:41:26;4.20;;;2.17;;
15356;SDS011;7778;48.792;9.260;2024-01-06T08:44:13;5.93;;;3.30;;
15356;SDS011;7778;48.792;9.260;2024-01-06T08:46:58;3.20;;;2.03;;
15356;SDS011;7778;48.792;9.260;2024-01-06T08:49:44;1.80;;;1.42;;
15356;SDS011;7778;48.792;9.260;2024-01-06T08:52:29;1.73;;;1.38;;
15356;SDS011;7778;48.792;9.260;2024-01-06T08:55:15;2.55;;;1.02;;
15356;SDS011;7778;48.792;9.260;2024-01-06T08:58:01;1.95;;;1.25;;
15356;SDS011;7778;48.792;9.260;2024-01-06T09:00:48;0.98;;;0.98;;
15356;SDS011;7778;48.792;9.260;2024-01-06T09:03:33;1.52;;;1.08;;
15356;SDS011;7778;48.792;9.260;2024-01-06T09:06:19;1.63;;;0.63;;
15356;SDS011;7778;48.792;9.260;2024-01-06T09:09:05;3.22;;;0.70;;
15356;SDS011;7778;48.792;9.260;2024-01-06T09:11:51;1.63;;;0.70;;
15356;SDS011;7778;48.792;9.260;2024-01-06T09:14:36;4.00;;;0.88;;
15356;SDS011;7778;48.792;9.260;2024-01-06T09:17:24;0.82;;;0.82;;
15356;SDS011;7778;48.792;9.260;2024-01-06T09:20:09;1.30;;;1.10;;
15356;SDS011;7778;48.792;9.260;2024-01-06T09:22:56;2.03;;;0.75;;
15356;SDS011;7778;48.792;9.260;2024-01-06T09:25:41;1.35;;;0.90;;
15356;SDS011;7778;48.792;9.260;2024-01-06T09:28:27;1.75;;;1.08;;
15356;SDS011;7778;48.792;9.260;2024-01-06T09:31:12;2.53;;;0.80;;
15356;SDS011;7778;48.792;9.260;2024-01-06T09:34:00;0.50;;;0.50;;
15356;SDS011;7778;48.792;9.260;2024-01-06T09:36:46;4.40;;;0.75;;
15356;SDS011;7778;48.792;9.260;2024-01-06T09:39:32;2.95;;;1.02;;
15356;SDS011;7778;48.792;9.260;2024-01-06T09:42:18;1.45;;;1.00;;
15356;SDS011;7778;48.792;9.260;2024-01-06T09:45:04;3.03;;;0.88;;
15356;SDS011;7778;48.792;9.260;2024-01-06T09:47:51;1.75;;;0.77;;
15356;SDS011;7778;48.792;9.260;2024-01-06T09:50:41;1.10;;;0.90;;
15356;SDS011;7778;48.792;9.260;2024-01-06T09:53:28;0.73;;;0.73;;
15356;SDS011;7778;48.792;9.260;2024-01-06T09:56:20;0.77;;;0.52;;
15356;SDS011;7778;48.792;9.260;2024-01-06T09:59:06;0.85;;;0.77;;
15356;SDS011;7778;48.792;9.260;2024-01-06T10:01:52;1.42;;;1.00;;
15356;SDS011;7778;48.792;9.260;2024-01-06T10:04:38;1.10;;;1.05;;
15356;SDS011;7778;48.792;9.260;2024-01-06T10:07:25;2.58;;;1.23;;
15356;SDS011;7778;48.792;9.260;2024-01-06T10:10:11;8.13;;;1.17;;
15356;SDS011;7778;48.792;9.260;2024-01-06T10:12:57;1.75;;;1.20;;
15356;SDS011;7778;48.792;9.260;2024-01-06T10:15:43;2.22;;;1.65;;
15356;SDS011;7778;48.792;9.260;2024-01-06T10:18:28;2.35;;;1.33;;
15356;SDS011;7778;48.792;9.260;2024-01-06T10:21:14;1.77;;;1.67;;
15356;SDS011;7778;48.792;9.260;2024-01-06T10:24:03;1.35;;;1.10;;
15356;SDS011;7778;48.792;9.260;2024-01-06T10:26:48;1.33;;;1.23;;
15356;SDS011;7778;48.792;9.260;2024-01-06T10:29:34;2.25;;;1.60;;
15356;SDS011;7778;48.792;9.260;2024-01-06T10:32:20;1.08;;;0.98;;
15356;SDS011;7778;48.792;9.260;2024-01-06T10:35:10;1.77;;;1.20;;
15356;SDS011;7778;48.792;9.260;2024-01-06T10:37:56;4.85;;;2.30;;
15356;SDS011;7778;48.792;9.260;2024-01-06T10:40:56;3.72;;;2.15;;
15356;SDS011;7778;48.792;9.260;2024-01-06T10:43:43;2.60;;;1.95;;
15356;SDS011;7778;48.792;9.260;2024-01-06T10:46:30;3.17;;;1.55;;
15356;SDS011;7778;48.792;9.260;2024-01-06T10:49:17;4.07;;;2.17;;
15356;SDS011;7778;48.792;9.260;2024-01-06T10:52:07;10.13;;;4.97;;
15356;SDS011;7778;48.792;9.260;2024-01-06T10:54:54;9.95;;;5.45;;
15356;SDS011;7778;48.792;9.260;2024-01-06T10:57:42;5.22;;;3.47;;
15356;SDS011;7778;48.792;9.260;2024-01-06T11:00:29;4.50;;;3.13;;
15356;SDS011;7778;48.792;9.260;2024-01-06T11:03:15;6.70;;;3.50;;
15356;SDS011;7778;48.792;9.260;2024-01-06T11:06:01;5.15;;;2.88;;
15356;SDS011;7778;48.792;9.260;2024-01-06T11:08:48;5.93;;;3.25;;
15356;SDS011;7778;48.792;9.260;2024-01-06T11:11:56;11.93;;;6.40;;
15356;SDS011;7778;48.792;9.260;2024-01-06T11:14:43;16.88;;;8.98;;
15356;SDS011;7778;48.792;9.260;2024-01-06T11:20:37;3.67;;;2.10;;
15356;SDS011;7778;48.792;9.260;2024-01-06T11:23:22;3.28;;;2.05;;
15356;SDS011;7778;48.792;9.260;2024-01-06T11:26:08;2.22;;;1.75;;
15356;SDS011;7778;48.792;9.260;2024-01-06T11:28:54;2.42;;;2.20;;
15356;SDS011;7778;48.792;9.260;2024-01-06T11:31:43;2.20;;;1.75;;
15356;SDS011;7778;48.792;9.260;2024-01-06T11:35:04;2.50;;;1.75;;
15356;SDS011;7778;48.792;9.260;2024-01-06T11:37:55;2.72;;;1.40;;
15356;SDS011;7778;48.792;9.260;2024-01-06T11:40:43;1.65;;;1.55;;
15356;SDS011;7778;48.792;9.260;2024-01-06T11:43:28;1.88;;;1.77;;
15356;SDS011;7778;48.792;9.260;2024-01-06T11:46:16;1.40;;;1.30;;
15356;SDS011;7778;48.792;9.260;2024-01-06T11:49:03;1.67;;;1.40;;
15356;SDS011;7778;48.792;9.260;2024-01-06T11:51:50;1.20;;;1.10;;
15356;SDS011;7778;48.792;9.260;2024-01-06T11:54:36;2.47;;;1.42;;
15356;SDS011;7778;48.792;9.260;2024-01-06T11:57:23;1.98;;;1.77;;
15356;SDS011;7778;48.792;9.260;2024-01-06T12:00:10;3.90;;;1.95;;
15356;SDS011;7778;48.792;9.260;2024-01-06T12:02:57;2.25;;;1.95;;
15356;SDS011;7778;48.792;9.260;2024-01-06T12:05:45;6.25;;;2.88;;
15356;SDS011;7778;48.792;9.260;2024-01-06T12:08:44;11.77;;;4.13;;
15356;SDS011;7778;48.792;9.260;2024-01-06T12:11:29;9.32;;;3.25;;
15356;SDS011;7778;48.792;9.260;2024-01-06T12:14:15;5.50;;;2.50;;
15356;SDS011;7778;48.792;9.260;2024-01-06T12:17:01;5.35;;;2.92;;
15356;SDS011;7778;48.792;9.260;2024-01-06T12:19:47;4.65;;;2.22;;
15356;SDS011;7778;48.792;9.260;2024-01-06T12:22:34;2.85;;;2.13;;
15356;SDS011;7778;48.792;9.260;2024-01-06T12:25:20;2.17;;;1.80;;
15356;SDS011;7778;48.792;9.260;2024-01-06T12:28:06;2.88;;;2.03;;
15356;SDS011;7778;48.792;9.260;2024-01-06T12:30:53;2.28;;;2.08;;
15356;SDS011;7778;48.792;9.260;2024-01-06T12:33:39;2.85;;;1.88;;
15356;SDS011;7778;48.792;9.260;2024-01-06T12:36:25;2.53;;;2.05;;
15356;SDS011;7778;48.792;9.260;2024-01-06T12:39:12;2.15;;;1.92;;
15356;SDS011;7778;48.792;9.260;2024-01-06T12:41:58;2.38;;;1.70;;
15356;SDS011;7778;48.792;9.260;2024-01-06T12:44:46;3.67;;;2.55;;
15356;SDS011;7778;48.792;9.260;2024-01-06T12:47:31;2.70;;;2.20;;
15356;SDS011;7778;48.792;9.260;2024-01-06T12:50:17;3.75;;;2.38;;
15356;SDS011;7778;48.792;9.260;2024-01-06T12:53:03;3.28;;;2.58;;
15356;SDS011;7778;48.792;9.260;2024-01-06T12:55:50;2.88;;;2.17;;
15356;SDS011;7778;48.792;9.260;2024-01-06T12:58:36;3.88;;;2.28;;
15356;SDS011;7778;48.792;9.260;2024-01-06T13:01:22;3.50;;;2.47;;
15356;SDS011;7778;48.792;9.260;2024-01-06T13:04:08;4.00;;;2.30;;
15356;SDS011;7778;48.792;9.260;2024-01-06T13:06:53;4.82;;;2.65;;
15356;SDS011;7778;48.792;9.260;2024-01-06T13:09:39;3.53;;;2.40;;
15356;SDS011;7778;48.792;9.260;2024-01-06T13:12:26;6.20;;;3.63;;
15356;SDS011;7778;48.792;9.260;2024-01-06T13:15:13;7.97;;;3.65;;
15356;SDS011;7778;48.792;9.260;2024-01-06T13:17:58;4.63;;;2.97;;
15356;SDS011;7778;48.792;9.260;2024-01-06T13:20:45;5.30;;;3.17;;
15356;SDS011;7778;48.792;9.260;2024-01-06T13:23:31;4.25;;;2.65;;
15356;SDS011;7778;48.792;9.260;2024-01-06T13:26:16;4.13;;;2.78;;
15356;SDS011;7778;48.792;9.260;2024-01-06T13:29:03;3.40;;;2.35;;
15356;SDS011;7778;48.792;9.260;2024-01-06T13:31:49;4.20;;;3.25;;
15356;SDS011;7778;48.792;9.260;2024-01-06T13:34:35;6.88;;;3.10;;
15356;SDS011;7778;48.792;9.260;2024-01-06T13:37:22;5.72;;;3.65;;
15356;SDS011;7778;48.792;9.260;2024-01-06T13:40:07;6.50;;;3.95;;
15356;SDS011;7778;48.792;9.260;2024-01-06T13:42:55;6.78;;;4.10;;
15356;SDS011;7778;48.792;9.260;2024-01-06T13:45:43;8.55;;;3.38;;
15356;SDS011;7778;48.792;9.260;2024-01-06T13:48:29;3.97;;;2.75;;
15356;SDS011;7778;48.792;9.260;2024-01-06T13:51:14;5.95;;;3.75;;
15356;SDS011;7778;48.792;9.260;2024-01-06T13:54:00;8.95;;;3.40;;
15356;SDS011;7778;48.792;9.260;2024-01-06T13:56:45;7.68;;;3.95;;
15356;SDS011;7778;48.792;9.260;2024-01-06T13:59:31;5.30;;;3.47;;
15356;SDS011;7778;48.792;9.260;2024-01-06T14:02:22;4.70;;;3.08;;
15356;SDS011;7778;48.792;9.260;2024-01-06T14:05:07;8.52;;;3.72;;
15356;SDS011;7778;48.792;9.260;2024-01-06T14:07:53;7.47;;;4.65;;
15356;SDS011;7778;48.792;9.260;2024-01-06T14:10:39;7.32;;;3.92;;
15356;SDS011;7778;48.792;9.260;2024-01-06T14:13:25;7.50;;;3.97;;
15356;SDS011;7778;48.792;9.260;2024-01-06T14:16:11;7.28;;;4.88;;
15356;SDS011;7778;48.792;9.260;2024-01-06T14:18:58;9.38;;;4.28;;
15356;SDS011;7778;48.792;9.260;2024-01-06T14:21:43;8.80;;;4.65;;
15356;SDS011;7778;48.792;9.260;2024-01-06T14:24:29;5.38;;;3.83;;
15356;SDS011;7778;48.792;9.260;2024-01-06T14:27:15;6.88;;;4.00;;
15356;SDS011;7778;48.792;9.260;2024-01-06T14:30:01;8.75;;;3.85;;
15356;SDS011;7778;48.792;9.260;2024-01-06T14:32:47;6.47;;;4.18;;
15356;SDS011;7778;48.792;9.260;2024-01-06T14:35:35;7.82;;;4.28;;
15356;SDS011;7778;48.792;9.260;2024-01-06T14:38:21;9.52;;;5.75;;
15356;SDS011;7778;48.792;9.260;2024-01-06T14:41:07;10.27;;;5.28;;
15356;SDS011;7778;48.792;9.260;2024-01-06T14:43:52;9.93;;;5.55;;
15356;SDS011;7778;48.792;9.260;2024-01-06T14:46:38;15.07;;;6.05;;
15356;SDS011;7778;48.792;9.260;2024-01-06T14:49:25;11.30;;;5.78;;
15356;SDS011;7778;48.792;9.260;2024-01-06T14:52:12;10.43;;;4.95;;
15356;SDS011;7778;48.792;9.260;2024-01-06T14:54:58;10.52;;;5.55;;
15356;SDS011;7778;48.792;9.260;2024-01-06T14:57:43;8.45;;;4.82;;
15356;SDS011;7778;48.792;9.260;2024-01-06T15:00:29;16.38;;;6.70;;
15356;SDS011;7778;48.792;9.260;2024-01-06T15:03:14;7.88;;;4.53;;
15356;SDS011;7778;48.792;9.260;2024-01-06T15:06:01;14.77;;;7.97;;
15356;SDS011;7778;48.792;9.260;2024-01-06T15:08:48;8.65;;;4.50;;
15356;SDS011;7778;48.792;9.260;2024-01-06T15:11:34;7.30;;;4.18;;
15356;SDS011;7778;48.792;9.260;2024-01-06T15:14:20;9.32;;;5.38;;
15356;SDS011;7778;48.792;9.260;2024-01-06T15:17:06;8.52;;;4.85;;
15356;SDS011;7778;48.792;9.260;2024-01-06T15:19:51;8.13;;;4.57;;
15356;SDS011;7778;48.792;9.260;2024-01-06T15:22:37;10.07;;;5.18;;
15356;SDS011;7778;48.792;9.260;2024-01-06T15:25:24;6.68;;;4.38;;
15356;SDS011;7778;48.792;9.260;2024-01-06T15:28:11;10.02;;;5.20;;
15356;SDS011;7778;48.792;9.260;2024-01-06T15:30:56;8.95;;;5.43;;
15356;SDS011;7778;48.792;9.260;2024-01-06T15:33:43;7.40;;;4.75;;
15356;SDS011;7778;48.792;9.260;2024-01-06T15:36:31;7.65;;;4.85;;
15356;SDS011;7778;48.792;9.260;2024-01-06T15:39:17;11.82;;;4.90;;
15356;SDS011;7778;48.792;9.260;2024-01-06T15:42:05;6.70;;;4.32;;
15356;SDS011;7778;48.792;9.260;2024-01-06T15:44:50;7.65;;;3.90;;
15356;SDS011;7778;48.792;9.260;2024-01-06T15:47:36;8.73;;;4.70;;
15356;SDS011;7778;48.792;9.260;2024-01-06T15:50:22;6.70;;;4.22;;
15356;SDS011;7778;48.792;9.260;2024-01-06T15:53:09;9.23;;;4.70;;
15356;SDS011;7778;48.792;9.260;2024-01-06T15:55:57;7.45;;;4.78;;
15356;SDS011;7778;48.792;9.260;2024-01-06T15:58:44;7.63;;;5.22;;
15356;SDS011;7778;48.792;9.260;2024-01-06T16:01:30;13.85;;;7.13;;
15356;SDS011;7778;48.792;9.260;2024-01-06T16:04:16;13.25;;;7.18;;
15356;SDS011;7778;48.792;9.260;2024-01-06T16:07:02;14.70;;;7.20;;
15356;SDS011;7778;48.792;9.260;2024-01-06T16:09:49;13.77;;;5.85;;
15356;SDS011;7778;48.792;9.260;2024-01-06T16:12:34;12.52;;;6.53;;
15356;SDS011;7778;48.792;9.260;2024-01-06T16:15:26;11.18;;;6.55;;
15356;SDS011;7778;48.792;9.260;2024-01-06T16:18:12;10.88;;;6.78;;
15356;SDS011;7778;48.792;9.260;2024-01-06T16:20:58;10.98;;;5.55;;
15356;SDS011;7778;48.792;9.260;2024-01-06T16:23:45;12.80;;;6.18;;
15356;SDS011;7778;48.792;9.260;2024-01-06T16:26:31;9.45;;;5.30;;
15356;SDS011;7778;48.792;9.260;2024-01-06T16:29:16;11.20;;;5.43;;
15356;SDS011;7778;48.792;9.260;2024-01-06T16:32:03;9.73;;;5.40;;
15356;SDS011;7778;48.792;9.260;2024-01-06T16:34:50;10.00;;;6.40;;
15356;SDS011;7778;48.792;9.260;2024-01-06T16:37:36;14.13;;;6.35;;
15356;SDS011;7778;48.792;9.260;2024-01-06T16:40:21;10.63;;;5.65;;
15356;SDS011;7778;48.792;9.260;2024-01-06T16:43:07;11.45;;;6.25;;
15356;SDS011;7778;48.792;9.260;2024-01-06T16:45:52;13.30;;;6.40;;
15356;SDS011;7778;48.792;9.260;2024-01-06T16:48:39;12.95;;;6.97;;
15356;SDS011;7778;48.792;9.260;2024-01-06T16:51:25;11.55;;;6.78;;
15356;SDS011;7778;48.792;9.260;2024-01-06T16:54:10;12.20;;;6.25;;
15356;SDS011;7778;48.792;9.260;2024-01-06T16:56:56;12.45;;;6.65;;
15356;SDS011;7778;48.792;9.260;2024-01-06T16:59:43;11.98;;;6.32;;